sensor_id;sensor_type;location;lat;lon;timestamp;temperature;humidity
9437;DHT22;4757;59.334;18.034;2023-06-26T00:00:09;18.10;99.90
9437;DHT22;4757;59.334;18.034;2023-06-26T00:02:38;18.30;99.90
9437;DHT22;4757;59.334;18.034;2023-06-26T00:05:05;18.30;99.90
9437;DHT22;4757;59.334;18.034;2023-06-26T00:07:32;18.40;99.90
9437;DHT22;4757;59.334;18.034;2023-06-26T00:10:03;18.40;99.90
9437;DHT22;4757;59.334;18.034;2023-06-26T00:12:31;18.30;99.90
9437;DHT22;4757;59.334;18.034;2023-06-26T00:14:59;18.20;99.90
9437;DHT22;4757;59.334;18.034;2023-06-26T00:17:26;18.30;99.90
9437;DHT22;4757;59.334;18.034;2023-06-26T00:19:53;18.40;99.90
9437;DHT22;4757;59.334;18.034;2023-06-26T00:22:21;18.40;99.90
9437;DHT22;4757;59.334;18.034;2023-06-26T00:24:48;18.20;99.90
9437;DHT22;4757;59.334;18.034;2023-06-26T00:27:16;18.30;99.90
9437;DHT22;4757;59.334;18.034;2023-06-26T00:29:43;18.30;99.90
9437;DHT22;4757;59.334;18.034;2023-06-26T00:32:10;18.30;99.90
9437;DHT22;4757;59.334;18.034;2023-06-26T00:34:37;17.90;99.90
9437;DHT22;4757;59.334;18.034;2023-06-26T00:37:04;18.00;99.90
9437;DHT22;4757;59.334;18.034;2023-06-26T00:39:32;18.00;99.90
9437;DHT22;4757;59.334;18.034;2023-06-26T00:42:00;18.00;99.90
9437;DHT22;4757;59.334;18.034;2023-06-26T00:44:27;18.10;99.90
9437;DHT22;4757;59.334;18.034;2023-06-26T00:46:54;18.20;99.90
9437;DHT22;4757;59.334;18.034;2023-06-26T00:49:21;17.90;99.90
9437;DHT22;4757;59.334;18.034;2023-06-26T00:51:48;18.10;99.90
9437;DHT22;4757;59.334;18.034;2023-06-26T00:54:16;18.20;99.90
9437;DHT22;4757;59.334;18.034;2023-06-26T00:56:46;18.10;99.90
9437;DHT22;4757;59.334;18.034;2023-06-26T00:59:14;18.10;99.90
9437;DHT22;4757;59.334;18.034;2023-06-26T01:01:41;18.10;99.90
9437;DHT22;4757;59.334;18.034;2023-06-26T01:04:08;18.10;99.90
9437;DHT22;4757;59.334;18.034;2023-06-26T01:06:47;18.20;99.90
9437;DHT22;4757;59.334;18.034;2023-06-26T01:09:17;18.20;99.90
9437;DHT22;4757;59.334;18.034;2023-06-26T01:11:46;18.10;99.90
9437;DHT22;4757;59.334;18.034;2023-06-26T01:14:13;18.10;99.90
9437;DHT22;4757;59.334;18.034;2023-06-26T01:16:41;17.70;99.90
9437;DHT22;4757;59.334;18.034;2023-06-26T01:19:24;17.60;99.90
9437;DHT22;4757;59.334;18.034;2023-06-26T01:27:36;17.90;99.90
9437;DHT22;4757;59.334;18.034;2023-06-26T01:30:06;17.90;99.90
9437;DHT22;4757;59.334;18.034;2023-06-26T01:32:34;18.00;99.90
9437;DHT22;4757;59.334;18.034;2023-06-26T01:35:02;17.90;99.90
9437;DHT22;4757;59.334;18.034;2023-06-26T01:37:29;17.80;99.90
9437;DHT22;4757;59.334;18.034;2023-06-26T01:39:56;17.70;99.90
9437;DHT22;4757;59.334;18.034;2023-06-26T01:42:23;17.70;99.90
9437;DHT22;4757;59.334;18.034;2023-06-26T01:44:50;17.40;99.90
9437;DHT22;4757;59.334;18.034;2023-06-26T01:47:23;17.50;99.90
9437;DHT22;4757;59.334;18.034;2023-06-26T01:52:41;17.70;99.90
9437;DHT22;4757;59.334;18.034;2023-06-26T01:55:30;17.60;99.90
9437;DHT22;4757;59.334;18.034;2023-06-26T01:58:00;17.60;99.90
9437;DHT22;4757;59.334;18.034;2023-06-26T02:00:28;17.50;99.90
9437;DHT22;4757;59.334;18.034;2023-06-26T02:02:55;17.40;99.90
9437;DHT22;4757;59.334;18.034;2023-06-26T02:05:22;17.40;99.90
9437;DHT22;4757;59.334;18.034;2023-06-26T02:07:50;17.50;99.90
9437;DHT22;4757;59.334;18.034;2023-06-26T02:10:18;17.60;99.90
9437;DHT22;4757;59.334;18.034;2023-06-26T02:12:45;17.60;99.90
9437;DHT22;4757;59.334;18.034;2023-06-26T02:15:12;17.50;99.90
9437;DHT22;4757;59.334;18.034;2023-06-26T02:17:39;17.60;99.90
9437;DHT22;4757;59.334;18.034;2023-06-26T02:20:07;17.50;99.90
9437;DHT22;4757;59.334;18.034;2023-06-26T02:22:36;17.50;99.90
9437;DHT22;4757;59.334;18.034;2023-06-26T02:25:03;17.60;99.90
9437;DHT22;4757;59.334;18.034;2023-06-26T02:27:30;17.70;99.90
9437;DHT22;4757;59.334;18.034;2023-06-26T02:29:57;17.70;99.90
9437;DHT22;4757;59.334;18.034;2023-06-26T02:32:24;17.70;99.90
9437;DHT22;4757;59.334;18.034;2023-06-26T02:34:51;17.60;99.90
9437;DHT22;4757;59.334;18.034;2023-06-26T02:37:19;17.50;99.90
9437;DHT22;4757;59.334;18.034;2023-06-26T02:39:46;17.60;99.90
9437;DHT22;4757;59.334;18.034;2023-06-26T02:42:13;17.60;99.90
9437;DHT22;4757;59.334;18.034;2023-06-26T02:44:40;17.70;99.90
9437;DHT22;4757;59.334;18.034;2023-06-26T02:47:07;17.80;99.90
9437;DHT22;4757;59.334;18.034;2023-06-26T02:49:35;17.80;99.90
9437;DHT22;4757;59.334;18.034;2023-06-26T02:52:02;17.80;99.90
9437;DHT22;4757;59.334;18.034;2023-06-26T02:54:29;17.80;99.90
9437;DHT22;4757;59.334;18.034;2023-06-26T02:56:56;17.90;99.90
9437;DHT22;4757;59.334;18.034;2023-06-26T02:59:23;17.80;99.90
9437;DHT22;4757;59.334;18.034;2023-06-26T03:01:50;17.80;99.90
9437;DHT22;4757;59.334;18.034;2023-06-26T03:04:17;17.90;99.90
9437;DHT22;4757;59.334;18.034;2023-06-26T03:06:44;17.90;99.90
9437;DHT22;4757;59.334;18.034;2023-06-26T03:09:11;18.00;99.90
9437;DHT22;4757;59.334;18.034;2023-06-26T03:11:39;17.90;99.90
9437;DHT22;4757;59.334;18.034;2023-06-26T03:14:06;17.90;99.90
9437;DHT22;4757;59.334;18.034;2023-06-26T03:16:33;18.10;99.90
9437;DHT22;4757;59.334;18.034;2023-06-26T03:19:00;18.10;99.90
9437;DHT22;4757;59.334;18.034;2023-06-26T03:21:27;18.10;99.90
9437;DHT22;4757;59.334;18.034;2023-06-26T03:23:54;18.20;99.90
9437;DHT22;4757;59.334;18.034;2023-06-26T03:26:21;18.20;99.90
9437;DHT22;4757;59.334;18.034;2023-06-26T03:28:55;18.30;99.90
9437;DHT22;4757;59.334;18.034;2023-06-26T03:31:22;18.40;99.90
9437;DHT22;4757;59.334;18.034;2023-06-26T03:33:49;18.30;99.90
9437;DHT22;4757;59.334;18.034;2023-06-26T03:36:16;18.40;99.90
9437;DHT22;4757;59.334;18.034;2023-06-26T03:38:43;18.50;99.90
9437;DHT22;4757;59.334;18.034;2023-06-26T03:41:10;18.50;99.90
9437;DHT22;4757;59.334;18.034;2023-06-26T03:43:38;18.60;99.90
9437;DHT22;4757;59.334;18.034;2023-06-26T03:46:05;18.70;99.90
9437;DHT22;4757;59.334;18.034;2023-06-26T03:48:32;18.60;99.90
9437;DHT22;4757;59.334;18.034;2023-06-26T03:50:59;18.80;99.90
9437;DHT22;4757;59.334;18.034;2023-06-26T03:53:28;18.80;99.90
9437;DHT22;4757;59.334;18.034;2023-06-26T03:55:55;18.80;99.90
9437;DHT22;4757;59.334;18.034;2023-06-26T03:58:22;18.90;99.90
9437;DHT22;4757;59.334;18.034;2023-06-26T04:00:49;18.80;99.90
9437;DHT22;4757;59.334;18.034;2023-06-26T04:03:17;18.80;99.90
9437;DHT22;4757;59.334;18.034;2023-06-26T04:05:44;18.90;99.90
9437;DHT22;4757;59.334;18.034;2023-06-26T04:08:11;19.00;99.90
9437;DHT22;4757;59.334;18.034;2023-06-26T04:10:38;19.10;99.90
9437;DHT22;4757;59.334;18.034;2023-06-26T04:13:05;19.10;99.90
9437;DHT22;4757;59.334;18.034;2023-06-26T04:15:32;19.10;99.90
9437;DHT22;4757;59.334;18.034;2023-06-26T04:17:59;19.20;99.90
9437;DHT22;4757;59.334;18.034;2023-06-26T04:20:40;19.20;99.90
9437;DHT22;4757;59.334;18.034;2023-06-26T04:23:07;19.20;99.90
9437;DHT22;4757;59.334;18.034;2023-06-26T04:25:34;19.30;99.90
9437;DHT22;4757;59.334;18.034;2023-06-26T04:28:04;19.20;99.90
9437;DHT22;4757;59.334;18.034;2023-06-26T04:30:31;19.30;99.90
9437;DHT22;4757;59.334;18.034;2023-06-26T04:32:58;19.50;99.90
9437;DHT22;4757;59.334;18.034;2023-06-26T04:35:28;19.50;99.90
9437;DHT22;4757;59.334;18.034;2023-06-26T04:37:55;19.50;99.90
9437;DHT22;4757;59.334;18.034;2023-06-26T04:40:22;19.50;99.90
9437;DHT22;4757;59.334;18.034;2023-06-26T04:42:49;19.60;99.90
9437;DHT22;4757;59.334;18.034;2023-06-26T04:45:16;19.70;99.90
9437;DHT22;4757;59.334;18.034;2023-06-26T04:47:43;19.70;99.90
9437;DHT22;4757;59.334;18.034;2023-06-26T04:50:10;19.80;99.90
9437;DHT22;4757;59.334;18.034;2023-06-26T04:52:37;19.80;99.90
9437;DHT22;4757;59.334;18.034;2023-06-26T04:55:04;19.70;99.90
9437;DHT22;4757;59.334;18.034;2023-06-26T04:57:31;19.80;99.90
9437;DHT22;4757;59.334;18.034;2023-06-26T04:59:59;19.90;99.90
9437;DHT22;4757;59.334;18.034;2023-06-26T05:02:26;20.00;99.90
9437;DHT22;4757;59.334;18.034;2023-06-26T05:04:53;19.90;99.90
9437;DHT22;4757;59.334;18.034;2023-06-26T05:07:20;19.90;99.90
9437;DHT22;4757;59.334;18.034;2023-06-26T05:09:47;20.00;99.90
9437;DHT22;4757;59.334;18.034;2023-06-26T05:12:15;20.10;99.90
9437;DHT22;4757;59.334;18.034;2023-06-26T05:14:42;20.20;99.90
9437;DHT22;4757;59.334;18.034;2023-06-26T05:17:09;20.40;99.90
9437;DHT22;4757;59.334;18.034;2023-06-26T05:19:36;20.40;99.90
9437;DHT22;4757;59.334;18.034;2023-06-26T05:22:03;20.30;99.90
9437;DHT22;4757;59.334;18.034;2023-06-26T05:24:35;20.40;99.90
9437;DHT22;4757;59.334;18.034;2023-06-26T05:27:03;20.40;99.90
9437;DHT22;4757;59.334;18.034;2023-06-26T05:29:31;20.20;99.90
9437;DHT22;4757;59.334;18.034;2023-06-26T05:31:59;20.10;99.90
9437;DHT22;4757;59.334;18.034;2023-06-26T05:34:26;20.20;99.90
9437;DHT22;4757;59.334;18.034;2023-06-26T05:36:59;20.20;99.90
9437;DHT22;4757;59.334;18.034;2023-06-26T05:39:26;20.00;99.90
9437;DHT22;4757;59.334;18.034;2023-06-26T05:41:53;20.10;99.90
9437;DHT22;4757;59.334;18.034;2023-06-26T05:44:21;20.10;99.90
9437;DHT22;4757;59.334;18.034;2023-06-26T05:46:48;20.30;99.90
9437;DHT22;4757;59.334;18.034;2023-06-26T05:49:15;20.40;99.90
9437;DHT22;4757;59.334;18.034;2023-06-26T05:51:42;20.50;99.90
9437;DHT22;4757;59.334;18.034;2023-06-26T05:54:10;20.40;99.90
9437;DHT22;4757;59.334;18.034;2023-06-26T05:56:38;20.50;99.90
9437;DHT22;4757;59.334;18.034;2023-06-26T05:59:10;20.60;99.90
9437;DHT22;4757;59.334;18.034;2023-06-26T06:01:38;20.50;99.90
9437;DHT22;4757;59.334;18.034;2023-06-26T06:04:05;20.70;99.90
9437;DHT22;4757;59.334;18.034;2023-06-26T06:06:32;20.80;99.90
9437;DHT22;4757;59.334;18.034;2023-06-26T06:08:59;20.60;99.90
9437;DHT22;4757;59.334;18.034;2023-06-26T06:11:26;20.60;99.90
9437;DHT22;4757;59.334;18.034;2023-06-26T06:13:53;20.50;99.90
9437;DHT22;4757;59.334;18.034;2023-06-26T06:16:20;20.30;99.90
9437;DHT22;4757;59.334;18.034;2023-06-26T06:18:47;20.60;99.90
9437;DHT22;4757;59.334;18.034;2023-06-26T06:21:14;20.50;99.90
9437;DHT22;4757;59.334;18.034;2023-06-26T06:23:41;20.80;99.90
9437;DHT22;4757;59.334;18.034;2023-06-26T06:26:08;21.10;99.90
9437;DHT22;4757;59.334;18.034;2023-06-26T06:28:36;21.20;99.90
9437;DHT22;4757;59.334;18.034;2023-06-26T06:31:03;21.30;99.90
9437;DHT22;4757;59.334;18.034;2023-06-26T06:33:30;21.20;99.90
9437;DHT22;4757;59.334;18.034;2023-06-26T06:35:57;21.20;99.90
9437;DHT22;4757;59.334;18.034;2023-06-26T06:38:24;21.40;99.90
9437;DHT22;4757;59.334;18.034;2023-06-26T06:40:52;21.40;99.60
9437;DHT22;4757;59.334;18.034;2023-06-26T06:43:19;21.40;99.90
9437;DHT22;4757;59.334;18.034;2023-06-26T06:45:46;21.40;99.90
9437;DHT22;4757;59.334;18.034;2023-06-26T06:48:13;21.70;99.90
9437;DHT22;4757;59.334;18.034;2023-06-26T06:50:40;21.70;99.90
9437;DHT22;4757;59.334;18.034;2023-06-26T06:53:08;21.60;99.90
9437;DHT22;4757;59.334;18.034;2023-06-26T06:55:35;21.60;99.90
9437;DHT22;4757;59.334;18.034;2023-06-26T06:58:02;21.90;99.90
9437;DHT22;4757;59.334;18.034;2023-06-26T07:00:31;22.20;99.90
9437;DHT22;4757;59.334;18.034;2023-06-26T07:02:58;23.00;99.90
9437;DHT22;4757;59.334;18.034;2023-06-26T07:05:27;23.50;99.00
9437;DHT22;4757;59.334;18.034;2023-06-26T07:07:54;24.60;98.40
9437;DHT22;4757;59.334;18.034;2023-06-26T07:10:21;25.10;97.10
9437;DHT22;4757;59.334;18.034;2023-06-26T07:12:48;25.30;97.00
9437;DHT22;4757;59.334;18.034;2023-06-26T07:15:17;25.20;96.60
9437;DHT22;4757;59.334;18.034;2023-06-26T07:17:44;25.30;96.40
9437;DHT22;4757;59.334;18.034;2023-06-26T07:20:11;25.30;96.30
9437;DHT22;4757;59.334;18.034;2023-06-26T07:22:42;24.80;96.90
9437;DHT22;4757;59.334;18.034;2023-06-26T07:25:11;24.70;97.00
9437;DHT22;4757;59.334;18.034;2023-06-26T07:27:39;24.90;96.70
9437;DHT22;4757;59.334;18.034;2023-06-26T07:30:07;25.10;96.40
9437;DHT22;4757;59.334;18.034;2023-06-26T07:32:38;24.90;96.00
9437;DHT22;4757;59.334;18.034;2023-06-26T07:35:06;25.50;95.70
9437;DHT22;4757;59.334;18.034;2023-06-26T07:37:33;26.20;95.10
9437;DHT22;4757;59.334;18.034;2023-06-26T07:40:01;26.00;94.60
9437;DHT22;4757;59.334;18.034;2023-06-26T07:42:28;25.40;95.40
9437;DHT22;4757;59.334;18.034;2023-06-26T07:44:55;25.60;95.50
9437;DHT22;4757;59.334;18.034;2023-06-26T07:47:22;25.50;95.30
9437;DHT22;4757;59.334;18.034;2023-06-26T07:49:49;26.30;95.60
9437;DHT22;4757;59.334;18.034;2023-06-26T07:52:17;25.90;95.50
9437;DHT22;4757;59.334;18.034;2023-06-26T07:54:44;25.30;96.30
9437;DHT22;4757;59.334;18.034;2023-06-26T07:57:12;25.70;96.10
9437;DHT22;4757;59.334;18.034;2023-06-26T07:59:39;25.30;96.40
9437;DHT22;4757;59.334;18.034;2023-06-26T08:02:07;25.50;96.60
9437;DHT22;4757;59.334;18.034;2023-06-26T08:04:34;25.80;96.40
9437;DHT22;4757;59.334;18.034;2023-06-26T08:07:02;26.10;96.70
9437;DHT22;4757;59.334;18.034;2023-06-26T08:09:31;26.80;95.90
9437;DHT22;4757;59.334;18.034;2023-06-26T08:11:59;26.70;95.80
9437;DHT22;4757;59.334;18.034;2023-06-26T08:14:26;26.50;95.80
9437;DHT22;4757;59.334;18.034;2023-06-26T08:16:53;25.90;96.30
9437;DHT22;4757;59.334;18.034;2023-06-26T08:19:21;26.20;96.40
9437;DHT22;4757;59.334;18.034;2023-06-26T08:21:48;25.80;97.00
9437;DHT22;4757;59.334;18.034;2023-06-26T08:24:15;25.70;96.90
9437;DHT22;4757;59.334;18.034;2023-06-26T08:26:48;25.80;96.30
9437;DHT22;4757;59.334;18.034;2023-06-26T08:29:15;26.00;96.10
9437;DHT22;4757;59.334;18.034;2023-06-26T08:31:42;25.90;96.80
9437;DHT22;4757;59.334;18.034;2023-06-26T08:34:10;25.60;97.10
9437;DHT22;4757;59.334;18.034;2023-06-26T08:36:37;26.20;96.80
9437;DHT22;4757;59.334;18.034;2023-06-26T08:39:05;26.30;96.50
9437;DHT22;4757;59.334;18.034;2023-06-26T08:41:32;26.60;96.00
9437;DHT22;4757;59.334;18.034;2023-06-26T08:43:59;26.20;96.00
9437;DHT22;4757;59.334;18.034;2023-06-26T08:46:28;25.30;96.80
9437;DHT22;4757;59.334;18.034;2023-06-26T08:48:56;26.00;96.40
9437;DHT22;4757;59.334;18.034;2023-06-26T08:51:25;27.20;95.60
9437;DHT22;4757;59.334;18.034;2023-06-26T08:53:59;26.00;96.40
9437;DHT22;4757;59.334;18.034;2023-06-26T08:56:40;25.70;95.90
9437;DHT22;4757;59.334;18.034;2023-06-26T08:59:08;26.40;95.70
9437;DHT22;4757;59.334;18.034;2023-06-26T09:01:41;25.90;96.10
9437;DHT22;4757;59.334;18.034;2023-06-26T09:04:08;26.70;95.30
9437;DHT22;4757;59.334;18.034;2023-06-26T09:06:36;27.10;95.20
9437;DHT22;4757;59.334;18.034;2023-06-26T09:09:03;27.00;95.20
9437;DHT22;4757;59.334;18.034;2023-06-26T09:11:30;26.10;96.10
9437;DHT22;4757;59.334;18.034;2023-06-26T09:13:58;27.20;95.40
9437;DHT22;4757;59.334;18.034;2023-06-26T09:16:26;27.60;94.90
9437;DHT22;4757;59.334;18.034;2023-06-26T09:18:55;27.80;94.80
9437;DHT22;4757;59.334;18.034;2023-06-26T09:21:22;27.60;94.70
9437;DHT22;4757;59.334;18.034;2023-06-26T09:23:52;27.80;95.00
9437;DHT22;4757;59.334;18.034;2023-06-26T09:26:21;28.20;95.00
9437;DHT22;4757;59.334;18.034;2023-06-26T09:28:49;28.80;94.70
9437;DHT22;4757;59.334;18.034;2023-06-26T09:31:17;27.90;95.60
9437;DHT22;4757;59.334;18.034;2023-06-26T09:34:04;28.10;95.50
9437;DHT22;4757;59.334;18.034;2023-06-26T09:36:32;26.90;96.70
9437;DHT22;4757;59.334;18.034;2023-06-26T09:39:06;27.40;96.50
9437;DHT22;4757;59.334;18.034;2023-06-26T09:41:38;27.80;96.20
9437;DHT22;4757;59.334;18.034;2023-06-26T09:44:06;27.40;96.60
9437;DHT22;4757;59.334;18.034;2023-06-26T09:46:34;27.60;96.30
9437;DHT22;4757;59.334;18.034;2023-06-26T09:49:05;27.90;96.10
9437;DHT22;4757;59.334;18.034;2023-06-26T09:51:36;27.20;96.40
9437;DHT22;4757;59.334;18.034;2023-06-26T09:54:04;27.70;96.30
9437;DHT22;4757;59.334;18.034;2023-06-26T09:56:32;27.80;96.00
9437;DHT22;4757;59.334;18.034;2023-06-26T09:59:01;27.60;96.40
9437;DHT22;4757;59.334;18.034;2023-06-26T10:01:30;27.60;96.50
9437;DHT22;4757;59.334;18.034;2023-06-26T10:03:58;27.50;96.70
9437;DHT22;4757;59.334;18.034;2023-06-26T10:06:39;28.10;96.40
9437;DHT22;4757;59.334;18.034;2023-06-26T10:09:08;28.50;95.70
9437;DHT22;4757;59.334;18.034;2023-06-26T10:14:15;28.10;96.20
9437;DHT22;4757;59.334;18.034;2023-06-26T10:16:45;28.20;96.00
9437;DHT22;4757;59.334;18.034;2023-06-26T10:19:14;28.40;96.20
9437;DHT22;4757;59.334;18.034;2023-06-26T10:21:42;29.10;95.50
9437;DHT22;4757;59.334;18.034;2023-06-26T10:24:13;28.70;95.80
9437;DHT22;4757;59.334;18.034;2023-06-26T10:27:03;28.70;95.60
9437;DHT22;4757;59.334;18.034;2023-06-26T10:29:36;27.90;96.00
9437;DHT22;4757;59.334;18.034;2023-06-26T10:32:05;27.90;96.00
9437;DHT22;4757;59.334;18.034;2023-06-26T10:34:33;27.60;96.20
9437;DHT22;4757;59.334;18.034;2023-06-26T10:37:03;28.20;95.50
9437;DHT22;4757;59.334;18.034;2023-06-26T10:39:51;28.60;95.10
9437;DHT22;4757;59.334;18.034;2023-06-26T10:42:44;28.10;95.30
9437;DHT22;4757;59.334;18.034;2023-06-26T10:45:22;27.50;95.90
9437;DHT22;4757;59.334;18.034;2023-06-26T10:47:53;28.00;95.40
9437;DHT22;4757;59.334;18.034;2023-06-26T10:50:31;28.70;94.90
9437;DHT22;4757;59.334;18.034;2023-06-26T10:53:14;28.70;94.70
9437;DHT22;4757;59.334;18.034;2023-06-26T10:55:57;28.10;95.00
9437;DHT22;4757;59.334;18.034;2023-06-26T11:03:39;28.00;95.00
9437;DHT22;4757;59.334;18.034;2023-06-26T11:06:11;28.00;94.80
9437;DHT22;4757;59.334;18.034;2023-06-26T11:08:45;27.80;95.30
9437;DHT22;4757;59.334;18.034;2023-06-26T11:11:14;27.70;95.30
9437;DHT22;4757;59.334;18.034;2023-06-26T11:13:42;26.90;95.80
9437;DHT22;4757;59.334;18.034;2023-06-26T11:16:12;27.30;95.40
9437;DHT22;4757;59.334;18.034;2023-06-26T11:18:42;27.40;95.60
9437;DHT22;4757;59.334;18.034;2023-06-26T11:21:11;27.50;95.20
9437;DHT22;4757;59.334;18.034;2023-06-26T11:23:41;27.50;95.20
9437;DHT22;4757;59.334;18.034;2023-06-26T11:26:21;27.70;95.20
9437;DHT22;4757;59.334;18.034;2023-06-26T11:28:54;27.60;95.40
9437;DHT22;4757;59.334;18.034;2023-06-26T11:31:28;27.30;95.60
9437;DHT22;4757;59.334;18.034;2023-06-26T11:34:00;27.20;96.00
9437;DHT22;4757;59.334;18.034;2023-06-26T11:36:28;27.00;95.30
9437;DHT22;4757;59.334;18.034;2023-06-26T11:39:01;27.20;95.60
9437;DHT22;4757;59.334;18.034;2023-06-26T11:41:30;27.30;95.30
9437;DHT22;4757;59.334;18.034;2023-06-26T11:44:06;27.60;95.20
9437;DHT22;4757;59.334;18.034;2023-06-26T11:46:37;26.70;95.70
9437;DHT22;4757;59.334;18.034;2023-06-26T11:49:05;27.70;95.00
9437;DHT22;4757;59.334;18.034;2023-06-26T11:51:34;27.90;94.40
9437;DHT22;4757;59.334;18.034;2023-06-26T11:54:04;27.80;94.40
9437;DHT22;4757;59.334;18.034;2023-06-26T11:56:36;27.60;94.40
9437;DHT22;4757;59.334;18.034;2023-06-26T11:59:07;27.70;93.90
9437;DHT22;4757;59.334;18.034;2023-06-26T12:01:44;28.20;93.50
9437;DHT22;4757;59.334;18.034;2023-06-26T12:04:14;28.70;93.00
9437;DHT22;4757;59.334;18.034;2023-06-26T12:06:48;27.90;93.40
9437;DHT22;4757;59.334;18.034;2023-06-26T12:09:18;28.50;92.90
9437;DHT22;4757;59.334;18.034;2023-06-26T12:11:48;28.10;93.40
9437;DHT22;4757;59.334;18.034;2023-06-26T12:14:20;28.50;92.80
9437;DHT22;4757;59.334;18.034;2023-06-26T12:16:49;28.90;92.30
9437;DHT22;4757;59.334;18.034;2023-06-26T12:19:16;28.20;92.40
9437;DHT22;4757;59.334;18.034;2023-06-26T12:21:48;27.80;92.40
9437;DHT22;4757;59.334;18.034;2023-06-26T12:24:20;27.50;92.60
9437;DHT22;4757;59.334;18.034;2023-06-26T12:26:53;27.60;92.60
9437;DHT22;4757;59.334;18.034;2023-06-26T12:29:31;27.50;92.30
9437;DHT22;4757;59.334;18.034;2023-06-26T12:31:59;27.20;92.40
9437;DHT22;4757;59.334;18.034;2023-06-26T12:34:35;27.40;92.30
9437;DHT22;4757;59.334;18.034;2023-06-26T12:37:04;27.80;91.50
9437;DHT22;4757;59.334;18.034;2023-06-26T12:42:22;27.60;91.50
9437;DHT22;4757;59.334;18.034;2023-06-26T12:44:51;27.70;91.70
9437;DHT22;4757;59.334;18.034;2023-06-26T12:47:25;27.70;92.10
9437;DHT22;4757;59.334;18.034;2023-06-26T12:49:54;28.30;91.70
9437;DHT22;4757;59.334;18.034;2023-06-26T12:52:21;28.20;91.90
9437;DHT22;4757;59.334;18.034;2023-06-26T12:54:53;29.30;91.20
9437;DHT22;4757;59.334;18.034;2023-06-26T12:57:21;28.70;91.20
9437;DHT22;4757;59.334;18.034;2023-06-26T12:59:48;28.20;91.70
9437;DHT22;4757;59.334;18.034;2023-06-26T13:02:16;28.80;91.40
9437;DHT22;4757;59.334;18.034;2023-06-26T13:04:43;29.10;91.10
9437;DHT22;4757;59.334;18.034;2023-06-26T13:07:13;29.00;91.10
9437;DHT22;4757;59.334;18.034;2023-06-26T13:09:40;28.20;91.30
9437;DHT22;4757;59.334;18.034;2023-06-26T13:12:08;27.40;92.10
9437;DHT22;4757;59.334;18.034;2023-06-26T13:14:35;27.60;92.40
9437;DHT22;4757;59.334;18.034;2023-06-26T13:17:03;28.50;91.40
9437;DHT22;4757;59.334;18.034;2023-06-26T13:19:36;28.10;91.60
9437;DHT22;4757;59.334;18.034;2023-06-26T13:22:03;27.80;91.90
9437;DHT22;4757;59.334;18.034;2023-06-26T13:24:30;27.90;92.10
9437;DHT22;4757;59.334;18.034;2023-06-26T13:26:57;27.80;92.10
9437;DHT22;4757;59.334;18.034;2023-06-26T13:29:24;27.40;92.40
9437;DHT22;4757;59.334;18.034;2023-06-26T13:31:52;27.00;92.40
9437;DHT22;4757;59.334;18.034;2023-06-26T13:34:21;27.40;92.50
9437;DHT22;4757;59.334;18.034;2023-06-26T13:36:49;27.80;92.10
9437;DHT22;4757;59.334;18.034;2023-06-26T13:39:16;27.60;91.70
9437;DHT22;4757;59.334;18.034;2023-06-26T13:41:44;27.50;92.10
9437;DHT22;4757;59.334;18.034;2023-06-26T13:44:11;26.70;92.40
9437;DHT22;4757;59.334;18.034;2023-06-26T13:46:59;27.10;92.40
9437;DHT22;4757;59.334;18.034;2023-06-26T13:49:32;27.30;92.10
9437;DHT22;4757;59.334;18.034;2023-06-26T13:51:59;28.20;91.20
9437;DHT22;4757;59.334;18.034;2023-06-26T13:54:26;27.30;92.10
9437;DHT22;4757;59.334;18.034;2023-06-26T13:56:53;27.20;92.20
9437;DHT22;4757;59.334;18.034;2023-06-26T13:59:24;27.20;92.30
9437;DHT22;4757;59.334;18.034;2023-06-26T14:01:52;27.30;92.20
9437;DHT22;4757;59.334;18.034;2023-06-26T14:04:22;27.70;91.90
9437;DHT22;4757;59.334;18.034;2023-06-26T14:06:49;27.30;92.10
9437;DHT22;4757;59.334;18.034;2023-06-26T14:09:17;27.20;92.30
9437;DHT22;4757;59.334;18.034;2023-06-26T14:11:44;27.60;92.20
9437;DHT22;4757;59.334;18.034;2023-06-26T14:14:12;27.20;92.60
9437;DHT22;4757;59.334;18.034;2023-06-26T14:16:39;27.00;92.80
9437;DHT22;4757;59.334;18.034;2023-06-26T14:19:07;27.40;92.60
9437;DHT22;4757;59.334;18.034;2023-06-26T14:21:35;26.90;93.00
9437;DHT22;4757;59.334;18.034;2023-06-26T14:24:02;27.00;93.30
9437;DHT22;4757;59.334;18.034;2023-06-26T14:26:30;27.20;93.20
9437;DHT22;4757;59.334;18.034;2023-06-26T14:28:59;27.00;93.50
9437;DHT22;4757;59.334;18.034;2023-06-26T14:31:26;27.10;93.50
9437;DHT22;4757;59.334;18.034;2023-06-26T14:33:54;27.10;93.50
9437;DHT22;4757;59.334;18.034;2023-06-26T14:36:21;27.30;93.60
9437;DHT22;4757;59.334;18.034;2023-06-26T14:38:48;27.50;93.40
9437;DHT22;4757;59.334;18.034;2023-06-26T14:41:15;27.60;93.50
9437;DHT22;4757;59.334;18.034;2023-06-26T14:43:46;27.00;93.80
9437;DHT22;4757;59.334;18.034;2023-06-26T14:46:13;27.00;93.70
9437;DHT22;4757;59.334;18.034;2023-06-26T14:48:41;26.70;93.90
9437;DHT22;4757;59.334;18.034;2023-06-26T14:51:08;26.40;94.50
9437;DHT22;4757;59.334;18.034;2023-06-26T14:53:35;27.00;94.10
9437;DHT22;4757;59.334;18.034;2023-06-26T14:56:03;27.20;93.60
9437;DHT22;4757;59.334;18.034;2023-06-26T14:58:32;27.00;93.70
9437;DHT22;4757;59.334;18.034;2023-06-26T15:00:59;26.70;94.20
9437;DHT22;4757;59.334;18.034;2023-06-26T15:03:26;26.70;93.80
9437;DHT22;4757;59.334;18.034;2023-06-26T15:05:53;26.30;93.90
9437;DHT22;4757;59.334;18.034;2023-06-26T15:08:20;26.00;94.20
9437;DHT22;4757;59.334;18.034;2023-06-26T15:10:47;26.50;93.90
9437;DHT22;4757;59.334;18.034;2023-06-26T15:13:14;26.20;93.50
9437;DHT22;4757;59.334;18.034;2023-06-26T15:15:41;26.80;93.50
9437;DHT22;4757;59.334;18.034;2023-06-26T15:18:08;26.90;93.20
9437;DHT22;4757;59.334;18.034;2023-06-26T15:20:35;26.60;93.30
9437;DHT22;4757;59.334;18.034;2023-06-26T15:23:03;26.50;93.60
9437;DHT22;4757;59.334;18.034;2023-06-26T15:25:30;26.10;93.80
9437;DHT22;4757;59.334;18.034;2023-06-26T15:27:58;25.80;94.10
9437;DHT22;4757;59.334;18.034;2023-06-26T15:30:25;25.90;94.30
9437;DHT22;4757;59.334;18.034;2023-06-26T15:32:52;26.10;94.40
9437;DHT22;4757;59.334;18.034;2023-06-26T15:35:19;26.50;93.90
9437;DHT22;4757;59.334;18.034;2023-06-26T15:37:46;26.30;93.90
9437;DHT22;4757;59.334;18.034;2023-06-26T15:40:14;26.30;94.20
9437;DHT22;4757;59.334;18.034;2023-06-26T15:42:48;26.10;94.30
9437;DHT22;4757;59.334;18.034;2023-06-26T15:45:16;25.70;94.90
9437;DHT22;4757;59.334;18.034;2023-06-26T15:47:49;25.60;95.10
9437;DHT22;4757;59.334;18.034;2023-06-26T15:50:17;25.60;95.30
9437;DHT22;4757;59.334;18.034;2023-06-26T15:52:45;25.80;95.20
9437;DHT22;4757;59.334;18.034;2023-06-26T15:55:13;25.70;95.40
9437;DHT22;4757;59.334;18.034;2023-06-26T15:57:40;25.60;96.00
9437;DHT22;4757;59.334;18.034;2023-06-26T16:00:08;25.50;96.00
9437;DHT22;4757;59.334;18.034;2023-06-26T16:02:36;25.60;96.20
9437;DHT22;4757;59.334;18.034;2023-06-26T16:05:04;25.60;96.50
9437;DHT22;4757;59.334;18.034;2023-06-26T16:07:32;25.80;96.80
9437;DHT22;4757;59.334;18.034;2023-06-26T16:10:19;25.50;97.30
9437;DHT22;4757;59.334;18.034;2023-06-26T16:12:46;24.80;98.20